createdAt,value
2023-05-17T00:02:23.169Z,101566.72
2023-05-17T00:04:53.755Z,101580.69
2023-05-17T00:07:26.234Z,101541.16
2023-05-17T00:09:56.086Z,101575.06
2023-05-17T00:12:25.941Z,101571.63
2023-05-17T00:14:55.883Z,101581.19
2023-05-17T00:17:26.192Z,101576.69
2023-05-17T00:19:56.118Z,101569.88
2023-05-17T00:22:28.628Z,101583.81
2023-05-17T00:24:58.407Z,101594.63
2023-05-17T00:27:28.198Z,101573.84
2023-05-17T00:29:58.019Z,101584.03
2023-05-17T00:32:27.878Z,101574.50
2023-05-17T00:34:57.716Z,101567.47
2023-05-17T00:37:30.125Z,101589.38
2023-05-17T00:39:59.889Z,101581.34
2023-05-17T00:42:29.693Z,101583.06
2023-05-17T00:44:59.492Z,101562.47
2023-05-17T00:47:29.350Z,101572.56
2023-05-17T00:49:59.349Z,101577.06
2023-05-17T00:52:31.786Z,101572.16
2023-05-17T00:55:02.019Z,101557.19
2023-05-17T00:57:32.360Z,101572.09
2023-05-17T01:00:05.038Z,101566.84
2023-05-17T01:02:35.888Z,101578.97
2023-05-17T01:05:05.913Z,101563.97
2023-05-17T01:07:38.474Z,101585.81
2023-05-17T01:10:09.936Z,101585.72
2023-05-17T01:12:50.925Z,101558.72
2023-05-17T01:15:26.230Z,101588.28
2023-05-17T01:18:09.852Z,101595.94
2023-05-17T01:20:43.059Z,101594.25
2023-05-17T01:23:30.839Z,101588.78
2023-05-17T01:26:07.544Z,101589.50
2023-05-17T01:28:41.424Z,101576.25
2023-05-17T01:31:14.061Z,101599.59
2023-05-17T01:33:44.307Z,101595.28
2023-05-17T01:36:14.184Z,101577.69
2023-05-17T01:38:44.617Z,101600.38
2023-05-17T01:41:21.110Z,101598.66
2023-05-17T01:43:58.035Z,101591.56
2023-05-17T01:46:31.643Z,101603.75
2023-05-17T01:49:11.805Z,101558.53
2023-05-17T01:51:47.978Z,101607.97
2023-05-17T01:54:23.174Z,101605.91
2023-05-17T01:57:00.335Z,101607.75
2023-05-17T01:59:34.445Z,101594.94
2023-05-17T02:02:08.889Z,101620.81
2023-05-17T02:04:39.589Z,101609.50
2023-05-17T02:07:09.428Z,101625.78
2023-05-17T02:09:39.457Z,101614.47
2023-05-17T02:12:10.419Z,101627.59
2023-05-17T02:14:42.774Z,101623.28
2023-05-17T02:17:13.530Z,101624.81
2023-05-17T02:19:43.396Z,101630.94
2023-05-17T02:22:13.233Z,101627.94
2023-05-17T02:24:43.041Z,101627.88
2023-05-17T02:27:14.207Z,101629.03
2023-05-17T02:29:46.555Z,101617.59
2023-05-17T02:32:16.357Z,101631.41
2023-05-17T02:34:49.058Z,101631.50
2023-05-17T02:37:18.830Z,101630.56
2023-05-17T02:39:48.622Z,101635.56
2023-05-17T02:42:18.435Z,101631.09
2023-05-17T02:44:53.134Z,101645.94
2023-05-17T02:47:23.827Z,101621.47
2023-05-17T02:49:53.637Z,101651.75
2023-05-17T02:52:23.608Z,101654.38
2023-05-17T02:54:53.421Z,101660.28
2023-05-17T02:57:23.193Z,101658.47
2023-05-17T02:59:55.707Z,101666.19
2023-05-17T03:02:25.681Z,101589.59
2023-05-17T03:04:55.520Z,101567.63
2023-05-17T03:07:25.706Z,101662.38
2023-05-17T03:09:56.280Z,101669.28
2023-05-17T03:12:29.369Z,101671.59
2023-05-17T03:15:02.111Z,101647.59
2023-05-17T03:17:32.558Z,101676.69
2023-05-17T03:20:02.960Z,101617.31
2023-05-17T03:22:33.366Z,101684.06
2023-05-17T03:25:03.388Z,101688.28
2023-05-17T03:27:33.232Z,101672.47
2023-05-17T03:30:06.339Z,101695.03
2023-05-17T03:32:37.793Z,101690.66
2023-05-17T03:35:08.501Z,101678.38
2023-05-17T03:37:40.076Z,101706.09
2023-05-17T03:40:11.615Z,101696.41
2023-05-17T03:42:41.561Z,101711.31
2023-05-17T03:45:14.717Z,101704.38
2023-05-17T03:47:44.552Z,101705.91
2023-05-17T03:50:15.221Z,101698.88
2023-05-17T03:52:46.319Z,101702.38
2023-05-17T03:55:16.589Z,101712.81
2023-05-17T03:57:46.384Z,101700.53
2023-05-17T04:00:22.032Z,101722.22
2023-05-17T04:02:52.315Z,101702.25
2023-05-17T04:05:23.284Z,101722.66
2023-05-17T04:07:53.417Z,101714.06
2023-05-17T04:10:23.292Z,101733.44
2023-05-17T04:12:54.098Z,101737.91
2023-05-17T04:15:26.678Z,101741.50
2023-05-17T04:17:56.811Z,101746.47
2023-05-17T04:20:27.666Z,101746.78
2023-05-17T04:22:57.876Z,101747.81
2023-05-17T04:25:31.260Z,101732.81
2023-05-17T04:28:01.198Z,101753.66
2023-05-17T04:30:33.589Z,101753.88
2023-05-17T04:33:04.028Z,101755.31
2023-05-17T04:35:33.928Z,101745.75
2023-05-17T04:38:03.693Z,101768.47
2023-05-17T04:40:33.833Z,101737.38
2023-05-17T04:43:04.052Z,101776.47
2023-05-17T04:45:37.945Z,101773.22
2023-05-17T04:48:08.587Z,101780.22
2023-05-17T04:50:38.600Z,101775.66
2023-05-17T04:53:09.119Z,101775.50
2023-05-17T04:55:40.088Z,101799.94
2023-05-17T04:58:10.129Z,101786.84
2023-05-17T05:00:43.844Z,101806.28
2023-05-17T05:03:14.446Z,101800.63
2023-05-17T05:05:44.662Z,101805.19
2023-05-17T05:08:15.266Z,101771.31
2023-05-17T05:10:46.896Z,101809.66
2023-05-17T05:13:19.282Z,101823.97
2023-05-17T05:15:51.849Z,101815.97
2023-05-17T05:18:21.831Z,101798.69
2023-05-17T05:20:52.196Z,101830.53
2023-05-17T05:23:22.261Z,101806.38
2023-05-17T05:25:52.480Z,101833.25
2023-05-17T05:28:22.357Z,101831.13
2023-05-17T05:31:00.872Z,101835.31
2023-05-17T05:33:37.825Z,101845.66
2023-05-17T05:36:08.863Z,101838.44
2023-05-17T05:38:39.004Z,101823.34
2023-05-17T05:41:09.562Z,101832.28
2023-05-17T05:43:40.349Z,101857.59
2023-05-17T05:46:13.358Z,101854.25
2023-05-17T05:48:45.103Z,101860.50
2023-05-17T05:51:15.524Z,101868.03
2023-05-17T05:53:46.992Z,101861.38
2023-05-17T05:56:16.997Z,101866.97
2023-05-17T05:58:46.940Z,101852.72
2023-05-17T06:01:19.476Z,101875.19
2023-05-17T06:03:49.292Z,101884.81
2023-05-17T06:06:19.694Z,101875.13
2023-05-17T06:08:49.737Z,101876.66
2023-05-17T06:11:21.221Z,101884.28
2023-05-17T06:13:50.987Z,101876.31
2023-05-17T06:16:23.452Z,101879.88
2023-05-17T06:18:53.596Z,101893.00
2023-05-17T06:21:23.573Z,101901.84
2023-05-17T06:23:53.959Z,101905.44
2023-05-17T06:26:23.940Z,101908.25
2023-05-17T06:28:53.847Z,101911.22
2023-05-17T06:31:26.868Z,101895.66
2023-05-17T06:33:56.743Z,101916.56
2023-05-17T06:36:27.217Z,101894.81
2023-05-17T06:38:57.658Z,101910.94
2023-05-17T06:41:27.493Z,101892.53
2023-05-17T06:43:57.298Z,101928.22
2023-05-17T06:46:29.731Z,101929.03
2023-05-17T06:48:59.689Z,101930.47
2023-05-17T06:51:29.583Z,101935.19
2023-05-17T06:53:59.372Z,101920.97
2023-05-17T06:56:29.716Z,101942.00
2023-05-17T06:58:59.861Z,101943.63
2023-05-17T07:01:32.425Z,101953.44
2023-05-17T07:04:02.394Z,101947.22
2023-05-17T07:06:32.268Z,101953.59
2023-05-17T07:09:02.038Z,101948.03
2023-05-17T07:11:31.902Z,101938.56
2023-05-17T07:14:01.716Z,101917.44
2023-05-17T07:16:34.152Z,101931.94
2023-05-17T07:19:04.137Z,101929.13
2023-05-17T07:21:34.594Z,101939.50
2023-05-17T07:24:04.473Z,101940.69
2023-05-17T07:26:34.319Z,101945.94
2023-05-17T07:29:04.479Z,101947.97
2023-05-17T07:31:37.002Z,101944.78
2023-05-17T07:34:08.127Z,101955.91
2023-05-17T07:36:38.179Z,101951.28
2023-05-17T07:39:08.950Z,101938.47
2023-05-17T07:41:39.905Z,101977.78
2023-05-17T07:44:09.857Z,101953.22
2023-05-17T07:46:42.390Z,101976.69
2023-05-17T07:49:12.681Z,101975.78
2023-05-17T07:51:43.035Z,101968.00
2023-05-17T07:54:12.960Z,101983.50
2023-05-17T07:56:42.799Z,101986.09
2023-05-17T07:59:12.644Z,101986.81
2023-05-17T08:01:45.129Z,101987.50
2023-05-17T08:04:14.951Z,101988.53
2023-05-17T08:06:45.987Z,101965.44
2023-05-17T08:09:16.016Z,101993.44
2023-05-17T08:11:46.833Z,101984.78
2023-05-17T08:14:17.407Z,101971.53
2023-05-17T08:16:51.891Z,101995.22
2023-05-17T08:19:22.179Z,101989.31
2023-05-17T08:21:52.106Z,101974.53
2023-05-17T08:24:22.003Z,101998.44
2023-05-17T08:26:51.829Z,101962.03
2023-05-17T08:29:21.670Z,102016.22
2023-05-17T08:31:54.332Z,102016.34
2023-05-17T08:34:26.593Z,102024.28
2023-05-17T08:36:56.678Z,102009.47
2023-05-17T08:39:26.566Z,102009.97
2023-05-17T08:41:59.628Z,102019.44
2023-05-17T08:44:31.061Z,102033.38
2023-05-17T08:47:04.316Z,102004.53
2023-05-17T08:49:34.945Z,102021.94
2023-05-17T08:52:10.025Z,102018.31
2023-05-17T08:54:39.934Z,102032.69
2023-05-17T08:57:10.922Z,102031.59
2023-05-17T08:59:42.216Z,102044.88
2023-05-17T09:02:17.146Z,102041.59
2023-05-17T09:04:47.099Z,102049.59
2023-05-17T09:07:17.621Z,102044.22
2023-05-17T09:09:47.444Z,102032.13
2023-05-17T09:12:17.273Z,102047.84
2023-05-17T09:14:47.152Z,102047.69
2023-05-17T09:17:23.427Z,102046.41
2023-05-17T09:19:53.464Z,102031.72
2023-05-17T09:22:23.526Z,102007.72
2023-05-17T09:24:53.591Z,102016.25
2023-05-17T09:27:23.385Z,102006.28
2023-05-17T09:29:53.223Z,102037.25
2023-05-17T09:32:25.912Z,102019.03
2023-05-17T09:34:56.372Z,102011.56
2023-05-17T09:37:26.378Z,101995.78
2023-05-17T09:39:58.079Z,102024.28
2023-05-17T09:42:29.248Z,102013.84
2023-05-17T09:45:01.923Z,102025.03
2023-05-17T09:47:35.765Z,102012.69
2023-05-17T09:50:06.575Z,101998.03
2023-05-17T09:52:40.253Z,102033.91
2023-05-17T09:55:13.266Z,102000.31
2023-05-17T09:57:43.872Z,101998.56
2023-05-17T10:00:15.154Z,102001.66
2023-05-17T10:02:51.142Z,102019.53
2023-05-17T10:05:21.870Z,102006.34
2023-05-17T10:07:53.467Z,102022.53
2023-05-17T10:10:23.658Z,102031.44
2023-05-17T10:12:54.274Z,102002.28
2023-05-17T10:15:24.513Z,102040.00
2023-05-17T10:17:57.481Z,102019.56
2023-05-17T10:20:27.531Z,102035.47
2023-05-17T10:22:58.942Z,102024.28
2023-05-17T10:25:29.092Z,102047.84
2023-05-17T10:28:00.064Z,102045.34
2023-05-17T10:30:31.885Z,102047.97
2023-05-17T10:33:05.786Z,102035.97
2023-05-17T10:35:37.328Z,102040.44
2023-05-17T10:38:08.395Z,102036.66
2023-05-17T10:40:39.778Z,102008.22
2023-05-17T10:43:12.382Z,102043.03
2023-05-17T10:45:44.201Z,102029.50
2023-05-17T10:48:19.022Z,102008.53
2023-05-17T10:51:00.652Z,102028.63
2023-05-17T10:53:30.952Z,102020.44
2023-05-17T10:56:01.015Z,101994.00
2023-05-17T10:58:31.848Z,102022.84
2023-05-17T11:01:01.840Z,102036.75
2023-05-17T11:03:34.817Z,102029.50
2023-05-17T11:06:25.280Z,102043.97
2023-05-17T11:09:16.756Z,102025.22
2023-05-17T11:12:08.408Z,102040.31
2023-05-17T11:14:51.995Z,102035.91
2023-05-17T11:17:23.403Z,101982.34
2023-05-17T11:20:06.216Z,101983.44
2023-05-17T11:22:42.472Z,102020.16
2023-05-17T11:25:14.929Z,102009.97
2023-05-17T11:27:49.222Z,102029.41
2023-05-17T11:30:21.726Z,101989.44
2023-05-17T11:32:55.468Z,102027.53
2023-05-17T11:35:31.567Z,102028.25
2023-05-17T11:38:18.279Z,102004.28
2023-05-17T11:40:49.492Z,102013.25
2023-05-17T11:43:22.048Z,102028.81
2023-05-17T11:45:53.854Z,102034.59
2023-05-17T11:48:26.043Z,102024.38
2023-05-17T11:51:01.912Z,102034.28
2023-05-17T11:53:34.487Z,102022.72
2023-05-17T11:56:06.867Z,102007.09
2023-05-17T11:58:38.036Z,102005.66
2023-05-17T12:01:09.235Z,102002.97
2023-05-17T12:03:39.087Z,102015.56
2023-05-17T12:06:13.314Z,101981.47
2023-05-17T12:08:47.203Z,102045.25
2023-05-17T12:11:19.738Z,102042.56
2023-05-17T12:13:52.171Z,102039.25
2023-05-17T12:16:25.139Z,102043.50
2023-05-17T12:18:55.483Z,101861.00
2023-05-17T12:21:28.003Z,102031.97
2023-05-17T12:23:57.849Z,102062.66
2023-05-17T12:26:27.727Z,102033.72
2023-05-17T12:28:59.134Z,102024.22
2023-05-17T12:31:32.287Z,101971.50
2023-05-17T12:34:03.088Z,102040.19
2023-05-17T12:36:37.491Z,102041.38
2023-05-17T12:39:10.054Z,102059.38
2023-05-17T12:41:41.174Z,102052.72
2023-05-17T12:44:15.524Z,102059.91
2023-05-17T12:46:50.662Z,102078.03
2023-05-17T12:49:21.192Z,102074.91
2023-05-17T12:51:53.784Z,102067.59
2023-05-17T12:54:31.340Z,102048.72
2023-05-17T12:57:01.206Z,102069.41
2023-05-17T12:59:36.571Z,102039.00
2023-05-17T13:02:06.883Z,102048.88
2023-05-17T13:04:39.097Z,102045.44
2023-05-17T13:07:11.689Z,102075.97
2023-05-17T13:09:49.734Z,102071.59
2023-05-17T13:12:23.349Z,102068.19
2023-05-17T13:14:55.083Z,102053.22
2023-05-17T13:17:28.585Z,102070.47
2023-05-17T13:19:58.758Z,102050.03
2023-05-17T13:22:31.495Z,102067.03
2023-05-17T13:25:01.354Z,102013.88
2023-05-17T13:27:31.480Z,102046.06
2023-05-17T13:30:01.390Z,102061.59
2023-05-17T13:32:31.922Z,102046.34
2023-05-17T13:35:02.274Z,101996.31
2023-05-17T13:37:34.741Z,102067.91
2023-05-17T13:40:04.666Z,101996.22
2023-05-17T13:42:34.913Z,102068.59
2023-05-17T13:45:04.799Z,102024.56
2023-05-17T13:47:37.917Z,102049.59
2023-05-17T13:50:08.736Z,102049.63
2023-05-17T13:52:41.306Z,102056.94
2023-05-17T13:55:11.795Z,102006.88
2023-05-17T13:57:42.483Z,102057.69
2023-05-17T14:00:13.825Z,102060.06
2023-05-17T14:02:49.134Z,102040.50
2023-05-17T14:05:19.322Z,102042.78
2023-05-17T14:07:51.735Z,102058.81
2023-05-17T14:10:21.631Z,102019.66
2023-05-17T14:12:51.547Z,102054.31
2023-05-17T14:15:22.056Z,102055.59
2023-05-17T14:17:52.734Z,102059.16
2023-05-17T14:20:22.598Z,102028.28
2023-05-17T14:22:55.074Z,102046.56
2023-05-17T14:25:25.428Z,102051.28
2023-05-17T14:27:55.271Z,102040.06
2023-05-17T14:30:25.310Z,102027.53
2023-05-17T14:32:55.176Z,102038.22
2023-05-17T14:35:25.115Z,102013.84
2023-05-17T14:37:57.502Z,102032.38
2023-05-17T14:40:27.543Z,102021.34
2023-05-17T14:42:58.455Z,102031.84
2023-05-17T14:45:28.268Z,102049.44
2023-05-17T14:47:58.124Z,102052.22
2023-05-17T14:50:28.116Z,102061.88
2023-05-17T14:53:00.676Z,102055.88
2023-05-17T14:55:30.892Z,102052.34
2023-05-17T14:58:02.062Z,102052.84
2023-05-17T15:00:31.891Z,102050.91
2023-05-17T15:03:01.874Z,101951.19
2023-05-17T15:05:32.612Z,102058.00
2023-05-17T15:08:05.404Z,102006.28
2023-05-17T15:10:35.661Z,102059.78
2023-05-17T15:13:05.489Z,102059.38
2023-05-17T15:15:36.872Z,102061.84
2023-05-17T15:18:06.914Z,102035.53
2023-05-17T15:20:39.681Z,102044.78
2023-05-17T15:23:12.302Z,102055.53
2023-05-17T15:25:42.183Z,102063.66
2023-05-17T15:28:12.360Z,102015.75
2023-05-17T15:30:42.319Z,102033.44
2023-05-17T15:33:12.510Z,102058.63
2023-05-17T15:35:43.359Z,102041.50
2023-05-17T15:38:15.837Z,102071.88
2023-05-17T15:40:45.646Z,102064.56
2023-05-17T15:43:15.459Z,102065.84
2023-05-17T15:45:45.238Z,102065.56
2023-05-17T15:48:15.298Z,102057.22
2023-05-17T15:50:45.112Z,102046.13
2023-05-17T15:53:17.615Z,102064.31
2023-05-17T15:55:50.896Z,102048.19
2023-05-17T15:58:20.897Z,102068.00
2023-05-17T16:00:50.966Z,102074.03
2023-05-17T16:03:20.842Z,102040.28
2023-05-17T16:05:50.903Z,102077.72
2023-05-17T16:08:23.575Z,102067.09
2023-05-17T16:10:53.383Z,102075.00
2023-05-17T16:13:23.161Z,102041.94
2023-05-17T16:15:52.961Z,102071.13
2023-05-17T16:18:22.817Z,102081.56
2023-05-17T16:21:00.261Z,102077.31
2023-05-17T16:23:32.921Z,102066.66
2023-05-17T16:26:03.032Z,102075.91
2023-05-17T16:28:34.777Z,102054.84
2023-05-17T16:31:06.293Z,102072.91
2023-05-17T16:33:36.151Z,102078.63
2023-05-17T16:36:06.797Z,102072.03
2023-05-17T16:38:39.248Z,102083.19
2023-05-17T16:41:09.059Z,102072.66
2023-05-17T16:43:39.015Z,102085.50
2023-05-17T16:46:08.838Z,102093.91
2023-05-17T16:48:38.680Z,102080.91
2023-05-17T16:51:08.719Z,102091.88
2023-05-17T16:53:41.165Z,102094.53
2023-05-17T16:56:10.932Z,102098.38
2023-05-17T16:58:40.683Z,102096.13
2023-05-17T17:01:10.522Z,102116.03
2023-05-17T17:03:40.430Z,102085.19
2023-05-17T17:06:10.390Z,102091.06
2023-05-17T17:08:42.800Z,102099.56
2023-05-17T17:11:12.590Z,102099.66
2023-05-17T17:13:42.452Z,102107.47
2023-05-17T17:16:12.287Z,102103.06
2023-05-17T17:18:42.147Z,102094.47
2023-05-17T17:21:11.983Z,102108.09
2023-05-17T17:23:44.603Z,102095.59
2023-05-17T17:26:15.569Z,102094.97
2023-05-17T17:28:45.588Z,102073.88
2023-05-17T17:31:15.343Z,102115.88
2023-05-17T17:33:45.184Z,102121.59
2023-05-17T17:36:15.016Z,102124.06
2023-05-17T17:38:47.408Z,102116.44
2023-05-17T17:41:17.216Z,102137.94
2023-05-17T17:43:47.647Z,102117.97
2023-05-17T17:46:17.415Z,102133.84
2023-05-17T17:48:47.191Z,102132.75
2023-05-17T17:51:16.981Z,102074.31
2023-05-17T17:53:49.349Z,102114.59
2023-05-17T17:56:19.132Z,102137.28
2023-05-17T17:58:49.212Z,102134.38
2023-05-17T18:01:19.198Z,102147.72
2023-05-17T18:03:49.008Z,102151.47
2023-05-17T18:06:19.682Z,102152.56
2023-05-17T18:08:52.052Z,102154.88
2023-05-17T18:11:21.869Z,102166.72
2023-05-17T18:13:51.839Z,102161.97
2023-05-17T18:16:21.673Z,102161.44
2023-05-17T18:18:51.597Z,102143.69
2023-05-17T18:21:21.785Z,102139.91
2023-05-17T18:23:54.228Z,102161.47
2023-05-17T18:26:24.283Z,102155.63
2023-05-17T18:28:54.162Z,102159.25
2023-05-17T18:31:23.975Z,102152.28
2023-05-17T18:33:56.308Z,102131.84
2023-05-17T18:36:27.801Z,102165.59
2023-05-17T18:39:01.064Z,102167.09
2023-05-17T18:41:31.433Z,102159.19
2023-05-17T18:44:04.300Z,102165.50
2023-05-17T18:46:34.368Z,102159.34
2023-05-17T18:49:04.409Z,102147.91
2023-05-17T18:51:34.344Z,102166.13
2023-05-17T18:54:06.877Z,102132.34
2023-05-17T18:56:36.708Z,102171.66
2023-05-17T18:59:06.585Z,102159.75
2023-05-17T19:01:36.958Z,102159.81
2023-05-17T19:04:06.885Z,102159.75
2023-05-17T19:06:36.711Z,102175.31
2023-05-17T19:09:09.190Z,102183.09
2023-05-17T19:11:39.074Z,102155.94
2023-05-17T19:14:08.885Z,102176.63
2023-05-17T19:16:39.288Z,102185.03
2023-05-17T19:19:09.426Z,102183.13
2023-05-17T19:21:39.273Z,102166.94
2023-05-17T19:24:11.805Z,102167.03
2023-05-17T19:26:41.755Z,102186.25
2023-05-17T19:29:11.517Z,102186.25
2023-05-17T19:31:41.332Z,102133.91
2023-05-17T19:34:11.210Z,102195.50
2023-05-17T19:36:40.994Z,102183.47
2023-05-17T19:39:13.426Z,102169.91
2023-05-17T19:41:43.222Z,102189.31
2023-05-17T19:44:13.075Z,102198.91
2023-05-17T19:46:43.036Z,102198.81
2023-05-17T19:49:12.826Z,102190.06
2023-05-17T19:51:42.585Z,102149.63
2023-05-17T19:54:15.090Z,102198.66
2023-05-17T19:56:45.011Z,102208.41
2023-05-17T19:59:14.818Z,102202.81
2023-05-17T20:01:44.620Z,102189.53
2023-05-17T20:04:14.728Z,102206.19
2023-05-17T20:06:44.566Z,102210.16
2023-05-17T20:09:17.017Z,102201.03
2023-05-17T20:11:46.916Z,102210.34
2023-05-17T20:14:16.700Z,102150.72
2023-05-17T20:16:46.586Z,102189.00
2023-05-17T20:19:16.797Z,102204.28
2023-05-17T20:21:46.754Z,102200.75
2023-05-17T20:24:19.619Z,102211.94
2023-05-17T20:26:49.585Z,102184.00
2023-05-17T20:29:19.531Z,102202.78
2023-05-17T20:31:49.416Z,102207.63
2023-05-17T20:34:19.377Z,102208.38
2023-05-17T20:36:49.278Z,102200.88
2023-05-17T20:39:22.320Z,102207.00
2023-05-17T20:41:52.554Z,102215.69
2023-05-17T20:44:24.225Z,102200.47
2023-05-17T20:46:54.373Z,102215.94
2023-05-17T20:49:24.236Z,102198.00
2023-05-17T20:51:54.025Z,102221.78
2023-05-17T20:54:27.807Z,102214.94
2023-05-17T20:56:57.589Z,102222.41
2023-05-17T20:59:27.579Z,102216.22
2023-05-17T21:01:57.652Z,102228.03
2023-05-17T21:04:27.569Z,102232.88
2023-05-17T21:06:58.243Z,102223.06
2023-05-17T21:09:30.662Z,102231.59
2023-05-17T21:12:00.453Z,102232.25
2023-05-17T21:14:30.270Z,102225.38
2023-05-17T21:17:00.107Z,102239.53
2023-05-17T21:19:29.951Z,102221.44
2023-05-17T21:21:59.767Z,102186.78
2023-05-17T21:24:32.186Z,102234.53
2023-05-17T21:27:02.275Z,102221.00
2023-05-17T21:29:32.147Z,102226.97
2023-05-17T21:32:01.941Z,102233.72
2023-05-17T21:34:31.730Z,102232.75
2023-05-17T21:37:01.641Z,102234.28
2023-05-17T21:39:33.997Z,102234.72
2023-05-17T21:42:03.832Z,102239.88
2023-05-17T21:44:33.626Z,102238.66
2023-05-17T21:47:03.680Z,102245.19
2023-05-17T21:49:33.561Z,102227.06
2023-05-17T21:52:03.410Z,102235.41
2023-05-17T21:54:35.926Z,102239.47
2023-05-17T21:57:05.816Z,102212.16
2023-05-17T21:59:36.446Z,102234.59
2023-05-17T22:02:07.005Z,102245.84
2023-05-17T22:04:38.408Z,102247.69
2023-05-17T22:07:08.803Z,102245.69
2023-05-17T22:09:41.221Z,102224.22
2023-05-17T22:12:12.384Z,102228.06
2023-05-17T22:14:44.666Z,102261.84
2023-05-17T22:17:15.255Z,102256.53
2023-05-17T22:19:45.587Z,102245.22
2023-05-17T22:22:15.534Z,102243.25
2023-05-17T22:24:47.940Z,102260.66
2023-05-17T22:27:17.751Z,102251.56
2023-05-17T22:29:47.531Z,102261.16
2023-05-17T22:32:17.728Z,102258.44
2023-05-17T22:34:47.578Z,102244.75
2023-05-17T22:37:17.767Z,102257.31
2023-05-17T22:39:50.256Z,102218.75
2023-05-17T22:42:20.199Z,102189.03
2023-05-17T22:44:50.024Z,102258.13
2023-05-17T22:47:23.128Z,102266.31
2023-05-17T22:49:53.590Z,102260.53
2023-05-17T22:52:23.348Z,102268.19
2023-05-17T22:54:55.811Z,102267.78
2023-05-17T22:57:25.856Z,102251.13
2023-05-17T22:59:55.628Z,102268.03
2023-05-17T23:02:25.432Z,102265.91
2023-05-17T23:04:55.884Z,102257.16
2023-05-17T23:07:27.935Z,102232.75
2023-05-17T23:10:00.279Z,102272.59
2023-05-17T23:12:31.672Z,102248.44
2023-05-17T23:15:01.525Z,102272.16
2023-05-17T23:17:34.155Z,102223.06
2023-05-17T23:20:07.100Z,102255.19
2023-05-17T23:22:36.953Z,102269.03
2023-05-17T23:25:09.893Z,102263.88
2023-05-17T23:27:39.664Z,102276.91
2023-05-17T23:30:10.930Z,102270.97
2023-05-17T23:32:42.555Z,102273.34
2023-05-17T23:35:12.583Z,102277.63
2023-05-17T23:37:42.384Z,102274.78
2023-05-17T23:40:16.842Z,102276.19
2023-05-17T23:42:46.742Z,102271.38
2023-05-17T23:45:16.564Z,102255.75
2023-05-17T23:47:47.904Z,102268.81
2023-05-17T23:50:18.229Z,102273.91
2023-05-17T23:52:48.041Z,102238.25
2023-05-17T23:55:22.363Z,102250.06
2023-05-17T23:57:52.468Z,102266.91
